createdAt,value
2018-09-26T00:02:32.209Z,9.15
2018-09-26T00:05:01.377Z,9.17
2018-09-26T00:07:30.320Z,9.16
2018-09-26T00:09:59.287Z,9.20
2018-09-26T00:12:28.242Z,9.21
2018-09-26T00:14:57.280Z,9.17
2018-09-26T00:17:26.234Z,9.12
2018-09-26T00:19:55.245Z,9.10
2018-09-26T00:22:24.180Z,9.05
2018-09-26T00:24:53.149Z,9.00
2018-09-26T00:27:22.113Z,8.91
2018-09-26T00:29:51.029Z,8.86
2018-09-26T00:32:19.954Z,8.80
2018-09-26T00:34:48.861Z,8.75
2018-09-26T00:37:17.802Z,8.69
2018-09-26T00:39:46.737Z,8.60
2018-09-26T00:42:15.836Z,8.53
2018-09-26T00:44:44.782Z,8.47
2018-09-26T00:47:13.701Z,8.44
2018-09-26T00:49:42.685Z,8.40
2018-09-26T00:52:11.621Z,8.40
2018-09-26T00:54:40.554Z,8.38
2018-09-26T00:57:09.741Z,8.37
2018-09-26T00:59:38.689Z,8.35
2018-09-26T01:02:07.609Z,8.30
2018-09-26T01:04:36.543Z,8.27
2018-09-26T01:07:05.506Z,8.23
2018-09-26T01:09:34.490Z,8.19
2018-09-26T01:12:03.406Z,8.14
2018-09-26T01:14:32.327Z,8.09
2018-09-26T01:17:01.262Z,8.05
2018-09-26T01:19:30.181Z,7.96
2018-09-26T01:21:59.133Z,7.85
2018-09-26T01:24:28.064Z,7.80
2018-09-26T01:26:56.997Z,7.78
2018-09-26T01:29:25.934Z,7.70
2018-09-26T01:31:54.921Z,7.63
2018-09-26T01:34:23.866Z,7.58
2018-09-26T01:36:52.813Z,7.52
2018-09-26T01:39:21.771Z,7.48
2018-09-26T01:41:50.691Z,7.45
2018-09-26T01:44:19.638Z,7.43
2018-09-26T01:46:48.599Z,7.42
2018-09-26T01:49:17.813Z,7.38
2018-09-26T01:51:46.771Z,7.33
2018-09-26T01:54:15.755Z,7.26
2018-09-26T01:56:44.682Z,7.24
2018-09-26T01:59:13.589Z,7.26
2018-09-26T02:01:42.554Z,7.26
2018-09-26T02:04:11.486Z,7.20
2018-09-26T02:06:40.433Z,7.10
2018-09-26T02:09:11.636Z,7.08
2018-09-26T02:11:40.621Z,7.07
2018-09-26T02:14:09.581Z,6.98
2018-09-26T02:16:38.607Z,6.91
2018-09-26T02:19:07.621Z,6.89
2018-09-26T02:21:36.555Z,6.88
2018-09-26T02:24:05.502Z,6.84
2018-09-26T02:26:34.421Z,6.77
2018-09-26T02:29:03.366Z,6.83
2018-09-26T02:31:32.283Z,6.81
2018-09-26T02:34:01.249Z,6.73
2018-09-26T02:36:30.182Z,6.63
2018-09-26T02:38:59.281Z,6.65
2018-09-26T02:41:28.252Z,6.65
2018-09-26T02:43:57.282Z,6.59
2018-09-26T02:46:26.234Z,6.58
2018-09-26T02:49:00.154Z,6.55
2018-09-26T02:51:29.172Z,6.65
2018-09-26T02:53:58.109Z,6.68
2018-09-26T02:56:27.074Z,6.69
2018-09-26T02:58:56.010Z,6.61
2018-09-26T03:01:25.072Z,6.58
2018-09-26T03:03:54.050Z,6.59
2018-09-26T03:06:23.054Z,6.59
2018-09-26T03:08:52.068Z,6.50
2018-09-26T03:11:21.179Z,6.44
2018-09-26T03:13:50.174Z,6.46
2018-09-26T03:16:19.097Z,6.50
2018-09-26T03:18:48.042Z,6.44
2018-09-26T03:21:17.007Z,6.42
2018-09-26T03:23:45.950Z,6.38
2018-09-26T03:26:14.910Z,6.33
2018-09-26T03:28:43.862Z,6.31
2018-09-26T03:31:12.812Z,6.32
2018-09-26T03:33:41.816Z,6.30
2018-09-26T03:36:10.801Z,6.24
2018-09-26T03:38:39.701Z,6.21
2018-09-26T03:41:08.621Z,6.16
2018-09-26T03:43:37.601Z,6.16
2018-09-26T03:46:06.570Z,6.15
2018-09-26T03:48:35.540Z,6.13
2018-09-26T03:51:04.491Z,6.13
2018-09-26T03:53:33.421Z,6.09
2018-09-26T03:56:02.370Z,6.07
2018-09-26T03:58:31.373Z,6.05
2018-09-26T04:01:00.326Z,6.02
2018-09-26T04:03:29.277Z,5.98
2018-09-26T04:05:58.223Z,5.96
2018-09-26T04:08:27.213Z,5.95
2018-09-26T04:10:56.193Z,5.95
2018-09-26T04:13:25.162Z,5.92
2018-09-26T04:15:55.070Z,5.88
2018-09-26T04:18:26.117Z,5.90
2018-09-26T04:20:55.856Z,5.90
2018-09-26T04:23:24.807Z,5.92
2018-09-26T04:25:53.734Z,5.98
2018-09-26T04:28:22.710Z,6.02
2018-09-26T04:30:51.643Z,6.09
2018-09-26T04:33:20.718Z,6.18
2018-09-26T04:35:49.569Z,6.24
2018-09-26T04:38:18.525Z,6.29
2018-09-26T04:40:47.459Z,6.42
2018-09-26T04:43:16.538Z,6.50
2018-09-26T04:45:45.481Z,6.61
2018-09-26T04:48:14.415Z,6.78
2018-09-26T04:50:43.389Z,6.95
2018-09-26T04:53:12.321Z,7.10
2018-09-26T04:55:41.290Z,7.28
2018-09-26T04:58:10.228Z,7.51
2018-09-26T05:00:39.222Z,7.77
2018-09-26T05:03:08.185Z,8.00
2018-09-26T05:05:37.177Z,8.34
2018-09-26T05:08:06.167Z,8.62
2018-09-26T05:10:35.111Z,8.95
2018-09-26T05:13:04.042Z,9.24
2018-09-26T05:15:32.974Z,9.41
2018-09-26T05:18:01.931Z,9.67
2018-09-26T05:20:30.861Z,10.02
2018-09-26T05:22:59.848Z,10.34
2018-09-26T05:25:28.870Z,10.65
2018-09-26T05:27:57.887Z,10.93
2018-09-26T05:30:26.853Z,11.12
2018-09-26T05:32:55.797Z,11.15
2018-09-26T05:35:24.733Z,11.30
2018-09-26T05:37:53.673Z,11.43
2018-09-26T05:40:22.618Z,11.61
2018-09-26T05:42:51.530Z,11.78
2018-09-26T05:45:20.457Z,11.87
2018-09-26T05:47:49.373Z,12.04
2018-09-26T05:50:18.442Z,12.17
2018-09-26T05:52:47.334Z,12.29
2018-09-26T05:55:16.260Z,12.15
2018-09-26T05:57:45.197Z,12.18
2018-09-26T06:00:14.133Z,12.19
2018-09-26T06:02:43.100Z,12.39
2018-09-26T06:05:12.144Z,12.45
2018-09-26T06:07:41.113Z,12.55
2018-09-26T06:10:10.077Z,12.46
2018-09-26T06:12:39.082Z,12.51
2018-09-26T06:15:08.103Z,12.62
2018-09-26T06:17:37.019Z,12.79
2018-09-26T06:20:06.309Z,12.97
2018-09-26T06:22:35.348Z,12.96
2018-09-26T06:25:04.326Z,13.01
2018-09-26T06:27:33.372Z,12.95
2018-09-26T06:30:02.646Z,12.98
2018-09-26T06:32:31.572Z,13.13
2018-09-26T06:35:00.495Z,13.19
2018-09-26T06:37:29.466Z,13.19
2018-09-26T06:39:58.409Z,13.52
2018-09-26T06:42:27.393Z,13.64
2018-09-26T06:44:56.309Z,13.59
2018-09-26T06:47:25.321Z,13.67
2018-09-26T06:49:54.285Z,13.67
2018-09-26T06:52:23.315Z,13.65
2018-09-26T06:54:52.243Z,13.60
2018-09-26T06:57:21.189Z,13.53
2018-09-26T06:59:50.171Z,13.56
2018-09-26T07:02:19.201Z,13.39
2018-09-26T07:04:48.193Z,13.41
2018-09-26T07:07:17.141Z,13.49
2018-09-26T07:09:46.078Z,13.55
2018-09-26T07:12:15.092Z,13.65
2018-09-26T07:14:44.177Z,13.68
2018-09-26T07:17:13.086Z,13.82
2018-09-26T07:19:42.013Z,13.81
2018-09-26T07:22:10.953Z,13.92
2018-09-26T07:24:39.962Z,14.01
2018-09-26T07:27:08.938Z,14.05
2018-09-26T07:29:37.917Z,14.10
2018-09-26T07:32:06.971Z,14.13
2018-09-26T07:34:37.865Z,14.36
2018-09-26T07:37:07.613Z,14.59
2018-09-26T07:39:37.406Z,14.47
2018-09-26T07:42:06.322Z,14.44
2018-09-26T07:44:35.309Z,14.27
2018-09-26T07:47:04.241Z,14.36
2018-09-26T07:49:33.209Z,14.71
2018-09-26T07:52:02.139Z,14.81
2018-09-26T07:54:31.107Z,15.01
2018-09-26T07:57:00.042Z,15.00
2018-09-26T07:59:29.041Z,15.02
2018-09-26T08:01:57.979Z,14.99
2018-09-26T08:04:26.926Z,14.71
2018-09-26T08:10:28.062Z,14.80
2018-09-26T08:12:57.033Z,15.06
2018-09-26T08:15:25.956Z,15.40
2018-09-26T08:17:54.893Z,15.86
2018-09-26T08:20:23.814Z,16.17
2018-09-26T08:22:52.765Z,16.27
2018-09-26T08:25:21.693Z,16.49
2018-09-26T08:27:50.687Z,16.56
2018-09-26T08:30:19.607Z,16.53
2018-09-26T08:32:48.534Z,16.38
2018-09-26T08:35:17.486Z,16.59
2018-09-26T08:37:46.446Z,16.30
2018-09-26T08:40:15.402Z,16.71
2018-09-26T08:42:44.310Z,16.85
2018-09-26T08:45:13.284Z,17.13
2018-09-26T08:47:42.219Z,17.45
2018-09-26T08:50:11.291Z,17.65
2018-09-26T08:52:40.289Z,17.51
2018-09-26T08:55:09.214Z,16.84
2018-09-26T08:57:38.279Z,16.04
2018-09-26T09:00:08.036Z,15.83
2018-09-26T09:02:37.026Z,15.69
2018-09-26T09:05:05.943Z,15.66
2018-09-26T09:07:34.929Z,15.81
2018-09-26T09:10:03.933Z,16.00
2018-09-26T09:12:32.886Z,16.16
2018-09-26T09:15:01.853Z,16.02
2018-09-26T09:17:30.863Z,15.99
2018-09-26T09:19:59.804Z,16.36
2018-09-26T09:22:28.745Z,16.83
2018-09-26T09:24:57.742Z,16.82
2018-09-26T09:27:26.961Z,16.76
2018-09-26T09:29:55.901Z,16.63
2018-09-26T09:32:24.899Z,16.60
2018-09-26T09:34:53.832Z,16.48
2018-09-26T09:37:22.782Z,16.23
2018-09-26T09:39:51.804Z,15.94
2018-09-26T09:42:20.797Z,15.83
2018-09-26T09:44:49.735Z,16.07
2018-09-26T09:47:18.677Z,16.31
2018-09-26T09:49:47.606Z,16.31
2018-09-26T09:52:16.554Z,16.33
2018-09-26T09:54:45.534Z,16.32
2018-09-26T09:57:14.497Z,16.74
2018-09-26T09:59:43.631Z,17.41
2018-09-26T10:02:12.665Z,17.35
2018-09-26T10:04:41.615Z,17.40
2018-09-26T10:07:10.537Z,17.84
2018-09-26T10:09:39.494Z,17.92
2018-09-26T10:12:08.539Z,17.67
2018-09-26T10:14:37.514Z,17.69
2018-09-26T10:17:06.486Z,17.35
2018-09-26T10:19:35.428Z,17.57
2018-09-26T10:22:04.370Z,18.11
2018-09-26T10:24:33.355Z,18.35
2018-09-26T10:27:02.274Z,18.18
2018-09-26T10:29:31.199Z,18.06
2018-09-26T10:32:00.155Z,17.95
2018-09-26T10:34:29.070Z,17.75
2018-09-26T10:36:58.015Z,17.56
2018-09-26T10:39:26.974Z,17.33
2018-09-26T10:41:55.934Z,17.65
2018-09-26T10:44:24.952Z,17.78
2018-09-26T10:46:53.950Z,17.78
2018-09-26T10:49:22.969Z,17.69
2018-09-26T10:51:51.929Z,17.84
2018-09-26T10:54:20.869Z,18.13
2018-09-26T10:56:49.870Z,18.16
2018-09-26T10:59:18.825Z,18.25
2018-09-26T11:01:47.766Z,17.84
2018-09-26T11:04:16.735Z,17.61
2018-09-26T11:06:45.689Z,17.19
2018-09-26T11:09:14.718Z,16.88
2018-09-26T11:11:43.663Z,17.03
2018-09-26T11:14:12.649Z,18.04
2018-09-26T11:16:41.631Z,19.19
2018-09-26T11:19:10.611Z,19.48
2018-09-26T11:21:39.567Z,19.63
2018-09-26T11:24:08.519Z,18.99
2018-09-26T11:26:37.601Z,18.33
2018-09-26T11:29:06.594Z,17.66
2018-09-26T11:31:35.610Z,17.34
2018-09-26T11:34:04.746Z,17.04
2018-09-26T11:36:33.725Z,16.77
2018-09-26T11:39:02.780Z,16.56
2018-09-26T11:41:31.698Z,16.58
2018-09-26T11:44:00.683Z,16.66
2018-09-26T11:46:29.613Z,16.65
2018-09-26T11:48:58.595Z,17.05
2018-09-26T11:51:27.555Z,17.40
2018-09-26T11:53:56.599Z,17.54
2018-09-26T11:56:25.636Z,18.52
2018-09-26T11:58:54.606Z,19.48
2018-09-26T12:01:23.637Z,19.68
2018-09-26T12:03:52.591Z,19.06
2018-09-26T12:06:21.654Z,18.21
2018-09-26T12:08:50.560Z,17.77
2018-09-26T12:11:19.522Z,17.49
2018-09-26T12:13:48.540Z,17.26
2018-09-26T12:16:17.635Z,17.14
2018-09-26T12:18:46.689Z,17.11
2018-09-26T12:21:15.670Z,17.23
2018-09-26T12:23:44.606Z,17.11
2018-09-26T12:26:13.565Z,17.10
2018-09-26T12:28:42.510Z,16.97
2018-09-26T12:31:11.455Z,16.83
2018-09-26T12:33:40.440Z,16.53
2018-09-26T12:36:09.419Z,16.44
2018-09-26T12:38:38.422Z,16.49
2018-09-26T12:41:07.423Z,16.45
2018-09-26T12:43:36.377Z,16.26
2018-09-26T12:46:05.361Z,16.17
2018-09-26T12:48:34.416Z,16.06
2018-09-26T12:51:03.370Z,16.10
2018-09-26T12:53:32.348Z,16.30
2018-09-26T12:56:01.342Z,16.51
2018-09-26T12:58:30.287Z,16.52
2018-09-26T13:00:59.310Z,16.68
2018-09-26T13:03:28.239Z,16.71
2018-09-26T13:05:57.186Z,16.70
2018-09-26T13:08:26.262Z,16.66
2018-09-26T13:10:55.102Z,16.78
2018-09-26T13:13:24.062Z,16.82
2018-09-26T13:15:53.041Z,16.96
2018-09-26T13:18:22.143Z,16.93
2018-09-26T13:20:51.238Z,16.95
2018-09-26T13:23:20.266Z,17.11
2018-09-26T13:25:49.243Z,17.36
2018-09-26T13:28:18.262Z,17.31
2018-09-26T13:30:47.339Z,17.32
2018-09-26T13:33:16.258Z,17.29
2018-09-26T13:35:45.217Z,17.18
2018-09-26T13:38:14.205Z,16.99
2018-09-26T13:40:43.163Z,16.97
2018-09-26T13:43:12.098Z,16.97
2018-09-26T13:45:41.109Z,16.79
2018-09-26T13:48:10.096Z,16.61
2018-09-26T13:50:39.073Z,16.43
2018-09-26T13:53:08.050Z,16.30
2018-09-26T13:55:36.986Z,16.29
2018-09-26T13:58:05.931Z,16.36
2018-09-26T14:00:34.888Z,16.36
2018-09-26T14:03:03.878Z,16.32
2018-09-26T14:05:32.818Z,16.16
2018-09-26T14:08:01.765Z,16.03
2018-09-26T14:10:30.819Z,15.78
2018-09-26T14:12:59.722Z,15.67
2018-09-26T14:15:28.672Z,15.52
2018-09-26T14:17:57.651Z,15.42
2018-09-26T14:20:26.649Z,15.36
2018-09-26T14:22:55.583Z,15.38
2018-09-26T14:25:24.519Z,15.22
2018-09-26T14:27:53.489Z,15.12
2018-09-26T14:30:22.477Z,15.09
2018-09-26T14:32:51.407Z,15.16
2018-09-26T14:35:20.405Z,15.20
2018-09-26T14:37:49.452Z,15.33
2018-09-26T14:40:18.395Z,15.33
2018-09-26T14:42:47.356Z,15.35
2018-09-26T14:45:16.365Z,15.28
2018-09-26T14:47:45.281Z,15.36
2018-09-26T14:50:14.250Z,15.33
2018-09-26T14:52:43.241Z,15.21
2018-09-26T14:55:12.207Z,15.08
2018-09-26T14:57:41.152Z,15.02
2018-09-26T15:00:10.328Z,14.97
2018-09-26T15:02:39.271Z,14.88
2018-09-26T15:05:08.214Z,14.84
2018-09-26T15:07:37.166Z,14.84
2018-09-26T15:10:06.397Z,14.83
2018-09-26T15:12:35.321Z,14.77
2018-09-26T15:15:04.250Z,14.78
2018-09-26T15:17:33.199Z,14.81
2018-09-26T15:20:02.145Z,14.77
2018-09-26T15:22:31.187Z,14.73
2018-09-26T15:25:00.114Z,14.60
2018-09-26T15:27:29.141Z,14.63
2018-09-26T15:29:58.097Z,14.61
2018-09-26T15:32:27.159Z,14.56
2018-09-26T15:34:55.993Z,14.56
2018-09-26T15:37:24.934Z,14.53
2018-09-26T15:39:53.902Z,14.53
2018-09-26T15:42:22.907Z,14.53
2018-09-26T15:44:51.856Z,14.50
2018-09-26T15:47:20.866Z,14.38
2018-09-26T15:49:49.794Z,14.34
2018-09-26T15:52:18.812Z,14.24
2018-09-26T15:54:47.744Z,14.14
2018-09-26T15:57:16.718Z,14.09
2018-09-26T15:59:45.654Z,13.94
2018-09-26T16:02:14.838Z,13.83
2018-09-26T16:04:43.726Z,13.63
2018-09-26T16:07:12.758Z,13.45
2018-09-26T16:09:41.687Z,13.30
2018-09-26T16:12:10.689Z,13.17
2018-09-26T16:14:39.619Z,13.02
2018-09-26T16:17:08.575Z,12.95
2018-09-26T16:19:37.538Z,12.85
2018-09-26T16:22:06.504Z,12.74
2018-09-26T16:24:35.444Z,12.60
2018-09-26T16:27:04.399Z,12.47
2018-09-26T16:29:33.408Z,12.32
2018-09-26T16:32:02.334Z,12.20
2018-09-26T16:34:31.263Z,12.08
2018-09-26T16:37:00.227Z,11.93
2018-09-26T16:39:29.353Z,11.83
2018-09-26T16:41:58.172Z,11.74
2018-09-26T16:44:27.114Z,11.60
2018-09-26T16:46:56.083Z,11.51
2018-09-26T16:49:25.027Z,11.43
2018-09-26T16:51:54.049Z,11.33
2018-09-26T16:54:23.042Z,11.25
2018-09-26T16:56:52.006Z,11.14
2018-09-26T16:59:20.974Z,11.10
2018-09-26T17:01:49.905Z,11.07
2018-09-26T17:04:18.928Z,11.01
2018-09-26T17:06:47.829Z,11.07
2018-09-26T17:09:16.762Z,11.05
2018-09-26T17:11:45.710Z,11.00
2018-09-26T17:14:14.740Z,10.94
2018-09-26T17:16:43.750Z,10.89
2018-09-26T17:19:12.806Z,10.81
2018-09-26T17:21:41.770Z,10.70
2018-09-26T17:24:10.728Z,10.59
2018-09-26T17:26:39.712Z,10.49
2018-09-26T17:29:08.745Z,10.38
2018-09-26T17:31:37.686Z,10.28
2018-09-26T17:34:06.667Z,10.15
2018-09-26T17:36:35.732Z,10.06
2018-09-26T17:39:05.910Z,10.01
2018-09-26T17:41:34.886Z,9.96
2018-09-26T17:44:03.969Z,9.86
2018-09-26T17:46:33.113Z,9.80
2018-09-26T17:49:02.087Z,9.64
2018-09-26T17:51:31.190Z,9.59
2018-09-26T17:54:00.130Z,9.51
2018-09-26T17:56:29.091Z,9.43
2018-09-26T17:58:58.096Z,9.32
2018-09-26T18:01:27.115Z,9.31
2018-09-26T18:03:56.072Z,9.26
2018-09-26T18:06:25.039Z,9.18
2018-09-26T18:08:53.992Z,9.11
2018-09-26T18:11:22.958Z,8.41
2018-09-26T18:13:51.998Z,8.96
2018-09-26T18:16:20.952Z,8.94
2018-09-26T18:18:49.924Z,8.87
2018-09-26T18:21:18.965Z,8.87
2018-09-26T18:23:47.903Z,8.82
2018-09-26T18:26:16.882Z,8.85
2018-09-26T18:28:45.851Z,8.86
2018-09-26T18:31:14.822Z,8.91
2018-09-26T18:33:43.798Z,8.98
2018-09-26T18:36:12.786Z,9.00
2018-09-26T18:38:41.755Z,8.93
2018-09-26T18:41:10.765Z,8.86
2018-09-26T18:43:39.794Z,8.80
2018-09-26T18:46:08.730Z,8.72
2018-09-26T18:48:37.681Z,8.64
2018-09-26T18:51:06.687Z,8.55
2018-09-26T18:53:35.595Z,8.46
2018-09-26T18:56:04.561Z,8.39
2018-09-26T18:58:33.510Z,8.36
2018-09-26T19:01:02.554Z,8.34
2018-09-26T19:03:31.470Z,8.29
2018-09-26T19:06:00.550Z,8.25
2018-09-26T19:08:29.489Z,8.19
2018-09-26T19:10:58.410Z,8.13
2018-09-26T19:13:27.346Z,8.02
2018-09-26T19:15:56.275Z,7.94
2018-09-26T19:18:25.211Z,7.89
2018-09-26T19:20:54.144Z,7.86
2018-09-26T19:23:23.097Z,7.80
2018-09-26T19:25:52.043Z,7.78
2018-09-26T19:28:21.051Z,7.74
2018-09-26T19:30:50.015Z,7.71
2018-09-26T19:33:18.955Z,7.64
2018-09-26T19:35:47.895Z,7.55
2018-09-26T19:38:16.819Z,7.40
2018-09-26T19:40:45.787Z,7.40
2018-09-26T19:43:14.738Z,7.32
2018-09-26T19:45:43.682Z,7.23
2018-09-26T19:48:12.622Z,7.16
2018-09-26T19:50:41.637Z,7.13
2018-09-26T19:53:10.594Z,7.13
2018-09-26T19:55:39.536Z,7.10
2018-09-26T19:58:08.483Z,7.04
2018-09-26T20:00:37.393Z,6.95
2018-09-26T20:03:06.555Z,6.87
2018-09-26T20:05:35.470Z,6.80
2018-09-26T20:08:04.524Z,6.70
2018-09-26T20:10:33.387Z,6.67
2018-09-26T20:13:02.433Z,6.60
2018-09-26T20:15:31.317Z,6.57
2018-09-26T20:18:00.685Z,6.55
2018-09-26T20:20:29.708Z,6.52
2018-09-26T20:22:58.663Z,6.50
2018-09-26T20:25:27.656Z,6.47
2018-09-26T20:27:56.595Z,6.45
2018-09-26T20:30:25.567Z,6.49
2018-09-26T20:32:54.516Z,6.47
2018-09-26T20:35:23.606Z,6.44
2018-09-26T20:37:52.846Z,6.41
2018-09-26T20:40:21.788Z,6.37
2018-09-26T20:42:50.734Z,6.34
2018-09-26T20:45:19.682Z,6.30
2018-09-26T20:47:48.649Z,6.30
2018-09-26T20:50:17.571Z,6.26
2018-09-26T20:52:46.538Z,6.26
2018-09-26T20:55:15.490Z,6.25
2018-09-26T20:57:44.540Z,6.20
2018-09-26T21:00:13.479Z,6.18
2018-09-26T21:02:42.413Z,6.14
2018-09-26T21:05:11.698Z,6.09
2018-09-26T21:07:40.631Z,6.04
2018-09-26T21:10:10.319Z,6.03
2018-09-26T21:12:39.291Z,5.98
2018-09-26T21:15:08.369Z,5.98
2018-09-26T21:17:37.353Z,5.95
2018-09-26T21:20:06.325Z,5.92
2018-09-26T21:22:35.250Z,5.85
2018-09-26T21:25:04.174Z,5.84
2018-09-26T21:27:33.118Z,5.84
2018-09-26T21:30:02.107Z,5.81
2018-09-26T21:32:31.083Z,5.80
2018-09-26T21:35:00.022Z,5.76
2018-09-26T21:37:29.042Z,5.70
2018-09-26T21:39:57.968Z,5.65
2018-09-26T21:42:26.903Z,5.61
2018-09-26T21:44:55.846Z,5.58
2018-09-26T21:47:24.779Z,5.55
2018-09-26T21:49:53.751Z,5.50
2018-09-26T21:52:22.754Z,5.48
2018-09-26T21:54:51.693Z,5.48
2018-09-26T21:57:20.657Z,5.43
2018-09-26T21:59:49.645Z,5.42
2018-09-26T22:02:19.478Z,5.42
2018-09-26T22:04:48.414Z,5.40
2018-09-26T22:07:17.409Z,5.36
2018-09-26T22:09:46.342Z,5.37
2018-09-26T22:12:15.357Z,5.37
2018-09-26T22:14:44.300Z,5.32
2018-09-26T22:17:13.255Z,5.31
2018-09-26T22:19:42.194Z,5.29
2018-09-26T22:22:11.204Z,5.29
2018-09-26T22:24:40.149Z,5.29
2018-09-26T22:27:09.110Z,5.28
2018-09-26T22:29:38.081Z,5.21
2018-09-26T22:32:07.090Z,5.21
2018-09-26T22:34:36.029Z,5.20
2018-09-26T22:37:04.990Z,5.20
2018-09-26T22:39:33.942Z,5.17
2018-09-26T22:42:02.870Z,5.13
2018-09-26T22:44:31.866Z,5.10
2018-09-26T22:47:00.790Z,5.09
2018-09-26T22:49:29.717Z,5.08
2018-09-26T22:51:58.679Z,5.04
2018-09-26T22:54:27.629Z,4.99
2018-09-26T22:56:56.611Z,4.93
2018-09-26T22:59:26.548Z,4.90
2018-09-26T23:01:55.493Z,4.86
2018-09-26T23:04:24.602Z,4.83
2018-09-26T23:06:53.634Z,4.79
